sensor_id;sensor_type;location;lat;lon;timestamp;temperature;humidity
19567;DHT22;9930;49.240;8.548;2023-06-22T00:02:19;26.20;61.40
19567;DHT22;9930;49.240;8.548;2023-06-22T00:04:46;26.10;61.40
19567;DHT22;9930;49.240;8.548;2023-06-22T00:07:12;26.10;61.40
19567;DHT22;9930;49.240;8.548;2023-06-22T00:09:38;26.10;61.50
19567;DHT22;9930;49.240;8.548;2023-06-22T00:12:04;26.10;61.50
19567;DHT22;9930;49.240;8.548;2023-06-22T00:14:30;26.10;61.60
19567;DHT22;9930;49.240;8.548;2023-06-22T00:16:56;26.10;61.70
19567;DHT22;9930;49.240;8.548;2023-06-22T00:19:23;26.00;61.70
19567;DHT22;9930;49.240;8.548;2023-06-22T00:21:52;26.00;61.90
19567;DHT22;9930;49.240;8.548;2023-06-22T00:24:19;26.00;61.80
19567;DHT22;9930;49.240;8.548;2023-06-22T00:26:45;26.00;61.90
19567;DHT22;9930;49.240;8.548;2023-06-22T00:29:12;26.00;61.80
19567;DHT22;9930;49.240;8.548;2023-06-22T00:31:41;26.00;61.80
19567;DHT22;9930;49.240;8.548;2023-06-22T00:34:11;25.90;61.80
19567;DHT22;9930;49.240;8.548;2023-06-22T00:36:40;26.00;62.20
19567;DHT22;9930;49.240;8.548;2023-06-22T00:39:06;25.90;62.30
19567;DHT22;9930;49.240;8.548;2023-06-22T00:41:33;26.00;62.50
19567;DHT22;9930;49.240;8.548;2023-06-22T00:44:04;26.00;62.60
19567;DHT22;9930;49.240;8.548;2023-06-22T00:46:32;26.00;62.80
19567;DHT22;9930;49.240;8.548;2023-06-22T00:48:58;26.00;62.70
19567;DHT22;9930;49.240;8.548;2023-06-22T00:51:26;26.00;62.90
19567;DHT22;9930;49.240;8.548;2023-06-22T00:53:52;26.00;63.40
19567;DHT22;9930;49.240;8.548;2023-06-22T00:56:18;26.00;63.70
19567;DHT22;9930;49.240;8.548;2023-06-22T00:58:46;25.90;63.50
19567;DHT22;9930;49.240;8.548;2023-06-22T01:01:14;25.90;64.00
19567;DHT22;9930;49.240;8.548;2023-06-22T01:03:41;25.70;63.80
19567;DHT22;9930;49.240;8.548;2023-06-22T01:06:10;25.70;64.40
19567;DHT22;9930;49.240;8.548;2023-06-22T01:08:57;25.50;65.00
19567;DHT22;9930;49.240;8.548;2023-06-22T01:11:45;25.40;66.20
19567;DHT22;9930;49.240;8.548;2023-06-22T01:14:44;25.30;67.40
19567;DHT22;9930;49.240;8.548;2023-06-22T01:17:15;25.30;67.40
19567;DHT22;9930;49.240;8.548;2023-06-22T01:19:50;25.30;66.20
19567;DHT22;9930;49.240;8.548;2023-06-22T01:22:26;25.20;66.70
19567;DHT22;9930;49.240;8.548;2023-06-22T01:27:56;25.20;67.10
19567;DHT22;9930;49.240;8.548;2023-06-22T01:30:31;25.20;67.50
19567;DHT22;9930;49.240;8.548;2023-06-22T01:33:00;25.10;66.80
19567;DHT22;9930;49.240;8.548;2023-06-22T01:35:31;25.10;67.10
19567;DHT22;9930;49.240;8.548;2023-06-22T01:37:58;25.10;67.20
19567;DHT22;9930;49.240;8.548;2023-06-22T01:40:27;25.10;67.20
19567;DHT22;9930;49.240;8.548;2023-06-22T01:42:54;25.10;67.40
19567;DHT22;9930;49.240;8.548;2023-06-22T01:45:22;25.00;67.40
19567;DHT22;9930;49.240;8.548;2023-06-22T01:47:51;25.00;67.80
19567;DHT22;9930;49.240;8.548;2023-06-22T01:50:17;24.90;68.20
19567;DHT22;9930;49.240;8.548;2023-06-22T01:52:43;24.90;68.50
19567;DHT22;9930;49.240;8.548;2023-06-22T01:55:13;24.90;68.50
19567;DHT22;9930;49.240;8.548;2023-06-22T01:57:39;24.90;68.60
19567;DHT22;9930;49.240;8.548;2023-06-22T02:00:15;24.90;68.40
19567;DHT22;9930;49.240;8.548;2023-06-22T02:05:47;24.80;69.10
19567;DHT22;9930;49.240;8.548;2023-06-22T02:08:24;24.80;68.80
19567;DHT22;9930;49.240;8.548;2023-06-22T02:10:55;24.70;69.20
19567;DHT22;9930;49.240;8.548;2023-06-22T02:13:24;24.70;69.10
19567;DHT22;9930;49.240;8.548;2023-06-22T02:15:51;24.70;69.30
19567;DHT22;9930;49.240;8.548;2023-06-22T02:18:20;24.60;69.40
19567;DHT22;9930;49.240;8.548;2023-06-22T02:20:46;24.60;69.70
19567;DHT22;9930;49.240;8.548;2023-06-22T02:23:11;24.60;69.80
19567;DHT22;9930;49.240;8.548;2023-06-22T02:25:41;24.60;70.10
19567;DHT22;9930;49.240;8.548;2023-06-22T02:28:13;24.60;70.20
19567;DHT22;9930;49.240;8.548;2023-06-22T02:30:39;24.60;70.20
19567;DHT22;9930;49.240;8.548;2023-06-22T02:33:05;24.60;70.30
19567;DHT22;9930;49.240;8.548;2023-06-22T02:35:31;24.60;70.30
19567;DHT22;9930;49.240;8.548;2023-06-22T02:37:58;24.60;70.40
19567;DHT22;9930;49.240;8.548;2023-06-22T02:40:26;24.50;70.60
19567;DHT22;9930;49.240;8.548;2023-06-22T02:42:55;24.50;70.60
19567;DHT22;9930;49.240;8.548;2023-06-22T02:45:21;24.50;70.70
19567;DHT22;9930;49.240;8.548;2023-06-22T02:47:48;24.40;70.90
19567;DHT22;9930;49.240;8.548;2023-06-22T02:50:17;24.40;71.30
19567;DHT22;9930;49.240;8.548;2023-06-22T02:52:42;24.40;71.10
19567;DHT22;9930;49.240;8.548;2023-06-22T02:55:08;24.40;71.10
19567;DHT22;9930;49.240;8.548;2023-06-22T02:57:35;24.40;71.30
19567;DHT22;9930;49.240;8.548;2023-06-22T03:00:03;24.30;71.40
19567;DHT22;9930;49.240;8.548;2023-06-22T03:02:47;24.30;71.60
19567;DHT22;9930;49.240;8.548;2023-06-22T03:05:16;24.20;71.80
19567;DHT22;9930;49.240;8.548;2023-06-22T03:07:44;24.20;71.70
19567;DHT22;9930;49.240;8.548;2023-06-22T03:10:14;24.30;71.80
19567;DHT22;9930;49.240;8.548;2023-06-22T03:12:41;24.20;72.00
19567;DHT22;9930;49.240;8.548;2023-06-22T03:15:14;24.20;72.30
19567;DHT22;9930;49.240;8.548;2023-06-22T03:17:41;24.20;72.50
19567;DHT22;9930;49.240;8.548;2023-06-22T03:20:08;24.20;72.50
19567;DHT22;9930;49.240;8.548;2023-06-22T03:22:41;24.20;72.60
19567;DHT22;9930;49.240;8.548;2023-06-22T03:25:08;24.20;72.70
19567;DHT22;9930;49.240;8.548;2023-06-22T03:27:43;24.10;72.60
19567;DHT22;9930;49.240;8.548;2023-06-22T03:30:14;24.10;72.60
19567;DHT22;9930;49.240;8.548;2023-06-22T03:32:40;24.10;73.00
19567;DHT22;9930;49.240;8.548;2023-06-22T03:35:06;24.10;73.10
19567;DHT22;9930;49.240;8.548;2023-06-22T03:37:32;24.10;73.30
19567;DHT22;9930;49.240;8.548;2023-06-22T03:39:58;24.10;73.30
19567;DHT22;9930;49.240;8.548;2023-06-22T03:42:23;24.10;73.30
19567;DHT22;9930;49.240;8.548;2023-06-22T03:44:51;24.10;73.40
19567;DHT22;9930;49.240;8.548;2023-06-22T03:47:18;24.10;73.50
19567;DHT22;9930;49.240;8.548;2023-06-22T03:49:46;24.10;73.50
19567;DHT22;9930;49.240;8.548;2023-06-22T03:52:11;24.20;73.80
19567;DHT22;9930;49.240;8.548;2023-06-22T03:54:37;24.20;73.80
19567;DHT22;9930;49.240;8.548;2023-06-22T03:57:05;24.20;74.00
19567;DHT22;9930;49.240;8.548;2023-06-22T03:59:31;24.20;74.00
19567;DHT22;9930;49.240;8.548;2023-06-22T04:02:00;24.20;73.90
19567;DHT22;9930;49.240;8.548;2023-06-22T04:04:25;24.20;74.60
19567;DHT22;9930;49.240;8.548;2023-06-22T04:06:55;24.20;73.70
19567;DHT22;9930;49.240;8.548;2023-06-22T04:09:24;24.30;73.70
19567;DHT22;9930;49.240;8.548;2023-06-22T04:11:51;24.30;74.40
19567;DHT22;9930;49.240;8.548;2023-06-22T04:14:17;24.30;73.70
19567;DHT22;9930;49.240;8.548;2023-06-22T04:16:43;24.30;73.70
19567;DHT22;9930;49.240;8.548;2023-06-22T04:19:11;24.40;73.80
19567;DHT22;9930;49.240;8.548;2023-06-22T04:21:44;24.40;73.80
19567;DHT22;9930;49.240;8.548;2023-06-22T04:24:11;24.40;74.00
19567;DHT22;9930;49.240;8.548;2023-06-22T04:26:39;24.50;73.80
19567;DHT22;9930;49.240;8.548;2023-06-22T04:29:08;24.50;74.00
19567;DHT22;9930;49.240;8.548;2023-06-22T04:31:37;24.60;74.30
19567;DHT22;9930;49.240;8.548;2023-06-22T04:34:04;24.60;74.20
19567;DHT22;9930;49.240;8.548;2023-06-22T04:36:39;24.70;74.00
19567;DHT22;9930;49.240;8.548;2023-06-22T04:39:15;24.70;74.00
19567;DHT22;9930;49.240;8.548;2023-06-22T04:41:45;24.80;74.10
19567;DHT22;9930;49.240;8.548;2023-06-22T04:44:18;24.80;73.80
19567;DHT22;9930;49.240;8.548;2023-06-22T04:46:54;24.90;73.70
19567;DHT22;9930;49.240;8.548;2023-06-22T04:49:30;25.00;73.50
19567;DHT22;9930;49.240;8.548;2023-06-22T04:52:05;25.00;73.30
19567;DHT22;9930;49.240;8.548;2023-06-22T04:54:33;25.00;73.30
19567;DHT22;9930;49.240;8.548;2023-06-22T04:57:01;25.10;73.40
19567;DHT22;9930;49.240;8.548;2023-06-22T04:59:28;25.10;73.30
19567;DHT22;9930;49.240;8.548;2023-06-22T05:02:00;25.20;73.40
19567;DHT22;9930;49.240;8.548;2023-06-22T05:04:29;25.20;73.70
19567;DHT22;9930;49.240;8.548;2023-06-22T05:06:59;25.30;74.20
19567;DHT22;9930;49.240;8.548;2023-06-22T05:09:29;25.50;74.40
19567;DHT22;9930;49.240;8.548;2023-06-22T05:11:55;25.70;74.50
19567;DHT22;9930;49.240;8.548;2023-06-22T05:14:26;25.80;74.40
19567;DHT22;9930;49.240;8.548;2023-06-22T05:16:52;26.00;74.20
19567;DHT22;9930;49.240;8.548;2023-06-22T05:19:18;26.20;73.90
19567;DHT22;9930;49.240;8.548;2023-06-22T05:21:44;26.40;73.50
19567;DHT22;9930;49.240;8.548;2023-06-22T05:24:11;26.60;73.20
19567;DHT22;9930;49.240;8.548;2023-06-22T05:26:37;26.80;73.10
19567;DHT22;9930;49.240;8.548;2023-06-22T05:29:04;27.00;72.60
19567;DHT22;9930;49.240;8.548;2023-06-22T05:31:30;27.20;72.40
19567;DHT22;9930;49.240;8.548;2023-06-22T05:33:56;27.40;71.70
19567;DHT22;9930;49.240;8.548;2023-06-22T05:36:22;27.60;71.20
19567;DHT22;9930;49.240;8.548;2023-06-22T05:38:56;27.80;70.60
19567;DHT22;9930;49.240;8.548;2023-06-22T05:41:22;27.90;69.40
19567;DHT22;9930;49.240;8.548;2023-06-22T05:43:48;28.00;68.90
19567;DHT22;9930;49.240;8.548;2023-06-22T05:46:13;28.10;68.30
19567;DHT22;9930;49.240;8.548;2023-06-22T05:48:42;28.20;67.90
19567;DHT22;9930;49.240;8.548;2023-06-22T05:51:07;28.20;67.90
19567;DHT22;9930;49.240;8.548;2023-06-22T05:53:33;28.20;67.70
19567;DHT22;9930;49.240;8.548;2023-06-22T05:55:59;28.30;67.70
19567;DHT22;9930;49.240;8.548;2023-06-22T05:58:24;28.40;67.50
19567;DHT22;9930;49.240;8.548;2023-06-22T06:00:55;28.50;67.40
19567;DHT22;9930;49.240;8.548;2023-06-22T06:03:20;28.60;67.50
19567;DHT22;9930;49.240;8.548;2023-06-22T06:05:46;28.70;67.20
19567;DHT22;9930;49.240;8.548;2023-06-22T06:08:17;28.90;67.10
19567;DHT22;9930;49.240;8.548;2023-06-22T06:10:43;29.00;66.90
19567;DHT22;9930;49.240;8.548;2023-06-22T06:13:11;29.10;66.70
19567;DHT22;9930;49.240;8.548;2023-06-22T06:15:37;29.20;66.20
19567;DHT22;9930;49.240;8.548;2023-06-22T06:18:04;29.30;66.00
19567;DHT22;9930;49.240;8.548;2023-06-22T06:20:32;29.40;65.30
19567;DHT22;9930;49.240;8.548;2023-06-22T06:22:58;29.50;65.10
19567;DHT22;9930;49.240;8.548;2023-06-22T06:25:23;29.60;64.60
19567;DHT22;9930;49.240;8.548;2023-06-22T06:27:51;29.60;64.40
19567;DHT22;9930;49.240;8.548;2023-06-22T06:30:19;29.70;64.10
19567;DHT22;9930;49.240;8.548;2023-06-22T06:32:47;29.70;64.10
19567;DHT22;9930;49.240;8.548;2023-06-22T06:35:16;29.70;63.80
19567;DHT22;9930;49.240;8.548;2023-06-22T06:37:44;29.80;63.70
19567;DHT22;9930;49.240;8.548;2023-06-22T06:40:12;29.80;63.60
19567;DHT22;9930;49.240;8.548;2023-06-22T06:42:42;29.90;63.70
19567;DHT22;9930;49.240;8.548;2023-06-22T06:45:21;29.90;63.10
19567;DHT22;9930;49.240;8.548;2023-06-22T06:47:51;29.90;62.60
19567;DHT22;9930;49.240;8.548;2023-06-22T06:50:18;30.00;62.50
19567;DHT22;9930;49.240;8.548;2023-06-22T06:52:44;30.00;62.70
19567;DHT22;9930;49.240;8.548;2023-06-22T06:55:11;30.10;62.70
19567;DHT22;9930;49.240;8.548;2023-06-22T06:57:42;30.00;62.50
19567;DHT22;9930;49.240;8.548;2023-06-22T07:00:16;30.00;62.30
19567;DHT22;9930;49.240;8.548;2023-06-22T07:02:44;30.00;62.70
19567;DHT22;9930;49.240;8.548;2023-06-22T07:05:15;30.00;62.70
19567;DHT22;9930;49.240;8.548;2023-06-22T07:07:40;30.00;62.50
19567;DHT22;9930;49.240;8.548;2023-06-22T07:10:10;30.10;62.40
19567;DHT22;9930;49.240;8.548;2023-06-22T07:12:43;30.10;62.50
19567;DHT22;9930;49.240;8.548;2023-06-22T07:15:16;30.10;62.50
19567;DHT22;9930;49.240;8.548;2023-06-22T07:17:45;30.10;62.30
19567;DHT22;9930;49.240;8.548;2023-06-22T07:20:12;30.20;62.00
19567;DHT22;9930;49.240;8.548;2023-06-22T07:22:43;30.20;61.70
19567;DHT22;9930;49.240;8.548;2023-06-22T07:25:13;30.20;61.60
19567;DHT22;9930;49.240;8.548;2023-06-22T07:27:56;30.30;61.70
19567;DHT22;9930;49.240;8.548;2023-06-22T07:30:31;30.30;61.20
19567;DHT22;9930;49.240;8.548;2023-06-22T07:32:58;30.30;60.60
19567;DHT22;9930;49.240;8.548;2023-06-22T07:35:29;30.30;60.30
19567;DHT22;9930;49.240;8.548;2023-06-22T07:38:00;30.30;61.40
19567;DHT22;9930;49.240;8.548;2023-06-22T07:40:29;30.40;61.00
19567;DHT22;9930;49.240;8.548;2023-06-22T07:42:54;30.40;61.30
19567;DHT22;9930;49.240;8.548;2023-06-22T07:45:22;30.50;60.80
19567;DHT22;9930;49.240;8.548;2023-06-22T07:47:48;30.60;60.10
19567;DHT22;9930;49.240;8.548;2023-06-22T07:50:14;30.60;59.80
19567;DHT22;9930;49.240;8.548;2023-06-22T07:52:41;30.60;59.70
19567;DHT22;9930;49.240;8.548;2023-06-22T07:55:08;30.60;59.40
19567;DHT22;9930;49.240;8.548;2023-06-22T07:57:34;30.70;59.60
19567;DHT22;9930;49.240;8.548;2023-06-22T08:00:03;30.70;59.70
19567;DHT22;9930;49.240;8.548;2023-06-22T08:02:42;30.80;59.90
19567;DHT22;9930;49.240;8.548;2023-06-22T08:05:13;30.90;59.70
19567;DHT22;9930;49.240;8.548;2023-06-22T08:07:39;31.00;59.40
19567;DHT22;9930;49.240;8.548;2023-06-22T08:10:11;31.10;59.30
19567;DHT22;9930;49.240;8.548;2023-06-22T08:12:45;31.20;59.10
19567;DHT22;9930;49.240;8.548;2023-06-22T08:15:12;31.20;57.90
19567;DHT22;9930;49.240;8.548;2023-06-22T08:17:44;31.30;58.40
19567;DHT22;9930;49.240;8.548;2023-06-22T08:20:14;31.30;57.90
19567;DHT22;9930;49.240;8.548;2023-06-22T08:22:44;31.30;58.10
19567;DHT22;9930;49.240;8.548;2023-06-22T08:25:11;31.30;57.70
19567;DHT22;9930;49.240;8.548;2023-06-22T08:27:40;31.40;57.80
19567;DHT22;9930;49.240;8.548;2023-06-22T08:30:10;31.40;57.90
19567;DHT22;9930;49.240;8.548;2023-06-22T08:32:36;31.50;58.00
19567;DHT22;9930;49.240;8.548;2023-06-22T08:35:02;31.50;57.50
19567;DHT22;9930;49.240;8.548;2023-06-22T08:37:28;31.50;57.30
19567;DHT22;9930;49.240;8.548;2023-06-22T08:40:00;31.60;57.40
19567;DHT22;9930;49.240;8.548;2023-06-22T08:42:29;31.70;57.30
19567;DHT22;9930;49.240;8.548;2023-06-22T08:44:55;31.70;57.40
19567;DHT22;9930;49.240;8.548;2023-06-22T08:47:21;31.80;57.20
19567;DHT22;9930;49.240;8.548;2023-06-22T08:49:48;31.80;56.70
19567;DHT22;9930;49.240;8.548;2023-06-22T08:52:14;31.80;56.70
19567;DHT22;9930;49.240;8.548;2023-06-22T08:54:42;31.90;56.80
19567;DHT22;9930;49.240;8.548;2023-06-22T08:57:08;32.00;57.10
19567;DHT22;9930;49.240;8.548;2023-06-22T08:59:34;32.00;57.80
19567;DHT22;9930;49.240;8.548;2023-06-22T09:02:02;32.10;56.70
19567;DHT22;9930;49.240;8.548;2023-06-22T09:04:27;32.20;56.60
19567;DHT22;9930;49.240;8.548;2023-06-22T09:06:53;32.20;56.60
19567;DHT22;9930;49.240;8.548;2023-06-22T09:09:21;32.30;56.40
19567;DHT22;9930;49.240;8.548;2023-06-22T09:11:50;32.40;56.20
19567;DHT22;9930;49.240;8.548;2023-06-22T09:14:18;32.50;55.80
19567;DHT22;9930;49.240;8.548;2023-06-22T09:16:46;32.50;55.30
19567;DHT22;9930;49.240;8.548;2023-06-22T09:19:13;32.50;55.30
19567;DHT22;9930;49.240;8.548;2023-06-22T09:21:39;32.50;54.80
19567;DHT22;9930;49.240;8.548;2023-06-22T09:24:10;32.60;54.70
19567;DHT22;9930;49.240;8.548;2023-06-22T09:26:38;32.60;54.70
19567;DHT22;9930;49.240;8.548;2023-06-22T09:29:05;32.60;54.70
19567;DHT22;9930;49.240;8.548;2023-06-22T09:31:31;32.70;54.50
19567;DHT22;9930;49.240;8.548;2023-06-22T09:34:00;32.60;54.50
19567;DHT22;9930;49.240;8.548;2023-06-22T09:36:30;32.70;54.60
19567;DHT22;9930;49.240;8.548;2023-06-22T09:38:56;32.70;54.40
19567;DHT22;9930;49.240;8.548;2023-06-22T09:41:24;32.80;54.70
19567;DHT22;9930;49.240;8.548;2023-06-22T09:43:52;32.80;54.40
19567;DHT22;9930;49.240;8.548;2023-06-22T09:46:18;32.90;54.40
19567;DHT22;9930;49.240;8.548;2023-06-22T09:48:47;33.00;54.20
19567;DHT22;9930;49.240;8.548;2023-06-22T09:51:15;33.00;53.90
19567;DHT22;9930;49.240;8.548;2023-06-22T09:53:41;33.10;53.90
19567;DHT22;9930;49.240;8.548;2023-06-22T09:56:07;33.10;53.90
19567;DHT22;9930;49.240;8.548;2023-06-22T09:58:36;33.20;53.90
19567;DHT22;9930;49.240;8.548;2023-06-22T10:01:02;33.20;53.80
19567;DHT22;9930;49.240;8.548;2023-06-22T10:03:32;33.20;53.30
19567;DHT22;9930;49.240;8.548;2023-06-22T10:06:00;33.20;53.20
19567;DHT22;9930;49.240;8.548;2023-06-22T10:08:30;33.30;53.40
19567;DHT22;9930;49.240;8.548;2023-06-22T10:10:56;33.30;53.50
19567;DHT22;9930;49.240;8.548;2023-06-22T10:13:22;33.40;53.00
19567;DHT22;9930;49.240;8.548;2023-06-22T10:15:47;33.40;52.60
19567;DHT22;9930;49.240;8.548;2023-06-22T10:18:17;33.40;52.30
19567;DHT22;9930;49.240;8.548;2023-06-22T10:20:43;33.40;52.00
19567;DHT22;9930;49.240;8.548;2023-06-22T10:23:14;33.40;52.00
19567;DHT22;9930;49.240;8.548;2023-06-22T10:25:43;33.40;52.20
19567;DHT22;9930;49.240;8.548;2023-06-22T10:28:09;33.30;52.10
19567;DHT22;9930;49.240;8.548;2023-06-22T10:30:38;33.20;51.90
19567;DHT22;9930;49.240;8.548;2023-06-22T10:33:07;33.20;51.80
19567;DHT22;9930;49.240;8.548;2023-06-22T10:35:36;33.20;51.90
19567;DHT22;9930;49.240;8.548;2023-06-22T10:38:05;33.10;52.10
19567;DHT22;9930;49.240;8.548;2023-06-22T10:40:34;33.10;52.10
19567;DHT22;9930;49.240;8.548;2023-06-22T10:42:59;33.10;52.00
19567;DHT22;9930;49.240;8.548;2023-06-22T10:45:30;33.00;51.90
19567;DHT22;9930;49.240;8.548;2023-06-22T10:47:55;33.00;52.10
19567;DHT22;9930;49.240;8.548;2023-06-22T10:50:25;33.00;52.30
19567;DHT22;9930;49.240;8.548;2023-06-22T10:52:50;33.10;52.30
19567;DHT22;9930;49.240;8.548;2023-06-22T10:55:16;33.10;51.90
19567;DHT22;9930;49.240;8.548;2023-06-22T10:57:43;33.20;51.70
19567;DHT22;9930;49.240;8.548;2023-06-22T11:00:13;33.20;51.70
19567;DHT22;9930;49.240;8.548;2023-06-22T11:02:39;33.20;51.70
19567;DHT22;9930;49.240;8.548;2023-06-22T11:05:06;33.20;51.50
19567;DHT22;9930;49.240;8.548;2023-06-22T11:07:32;33.30;51.60
19567;DHT22;9930;49.240;8.548;2023-06-22T11:09:58;33.30;51.60
19567;DHT22;9930;49.240;8.548;2023-06-22T11:12:26;33.40;51.70
19567;DHT22;9930;49.240;8.548;2023-06-22T11:14:52;33.40;51.80
19567;DHT22;9930;49.240;8.548;2023-06-22T11:17:20;33.40;51.50
19567;DHT22;9930;49.240;8.548;2023-06-22T11:19:46;33.50;51.40
19567;DHT22;9930;49.240;8.548;2023-06-22T11:22:12;33.60;51.20
19567;DHT22;9930;49.240;8.548;2023-06-22T11:24:38;33.60;51.10
19567;DHT22;9930;49.240;8.548;2023-06-22T11:27:04;33.70;51.20
19567;DHT22;9930;49.240;8.548;2023-06-22T11:29:34;33.70;51.20
19567;DHT22;9930;49.240;8.548;2023-06-22T11:32:01;33.70;50.90
19567;DHT22;9930;49.240;8.548;2023-06-22T11:34:29;33.70;51.10
19567;DHT22;9930;49.240;8.548;2023-06-22T11:36:57;33.80;51.40
19567;DHT22;9930;49.240;8.548;2023-06-22T11:39:23;33.90;51.30
19567;DHT22;9930;49.240;8.548;2023-06-22T11:41:48;34.00;51.00
19567;DHT22;9930;49.240;8.548;2023-06-22T11:44:14;34.00;50.50
19567;DHT22;9930;49.240;8.548;2023-06-22T11:46:42;34.10;50.30
19567;DHT22;9930;49.240;8.548;2023-06-22T11:49:08;34.20;50.40
19567;DHT22;9930;49.240;8.548;2023-06-22T11:51:36;34.20;50.90
19567;DHT22;9930;49.240;8.548;2023-06-22T11:54:02;34.20;50.00
19567;DHT22;9930;49.240;8.548;2023-06-22T11:56:33;34.10;50.00
19567;DHT22;9930;49.240;8.548;2023-06-22T11:58:58;34.20;50.00
19567;DHT22;9930;49.240;8.548;2023-06-22T12:01:27;34.20;50.20
19567;DHT22;9930;49.240;8.548;2023-06-22T12:03:52;34.10;50.10
19567;DHT22;9930;49.240;8.548;2023-06-22T12:06:18;34.20;50.00
19567;DHT22;9930;49.240;8.548;2023-06-22T12:08:44;34.20;50.10
19567;DHT22;9930;49.240;8.548;2023-06-22T12:11:09;34.20;50.10
19567;DHT22;9930;49.240;8.548;2023-06-22T12:13:36;34.20;50.10
19567;DHT22;9930;49.240;8.548;2023-06-22T12:16:01;34.20;50.20
19567;DHT22;9930;49.240;8.548;2023-06-22T12:18:29;34.30;50.50
19567;DHT22;9930;49.240;8.548;2023-06-22T12:20:55;34.30;50.40
19567;DHT22;9930;49.240;8.548;2023-06-22T12:23:23;34.40;50.50
19567;DHT22;9930;49.240;8.548;2023-06-22T12:25:51;34.50;50.70
19567;DHT22;9930;49.240;8.548;2023-06-22T12:28:16;34.60;50.50
19567;DHT22;9930;49.240;8.548;2023-06-22T12:30:42;34.70;50.40
19567;DHT22;9930;49.240;8.548;2023-06-22T12:33:09;34.80;49.90
19567;DHT22;9930;49.240;8.548;2023-06-22T12:35:36;34.80;49.20
19567;DHT22;9930;49.240;8.548;2023-06-22T12:38:09;34.90;49.30
19567;DHT22;9930;49.240;8.548;2023-06-22T12:40:39;34.90;49.00
19567;DHT22;9930;49.240;8.548;2023-06-22T12:43:06;34.90;48.90
19567;DHT22;9930;49.240;8.548;2023-06-22T12:45:33;34.90;48.80
19567;DHT22;9930;49.240;8.548;2023-06-22T12:48:01;34.90;48.80
19567;DHT22;9930;49.240;8.548;2023-06-22T12:50:26;34.90;48.70
19567;DHT22;9930;49.240;8.548;2023-06-22T12:52:54;34.90;48.80
19567;DHT22;9930;49.240;8.548;2023-06-22T12:55:20;34.90;48.60
19567;DHT22;9930;49.240;8.548;2023-06-22T12:57:46;34.80;48.60
19567;DHT22;9930;49.240;8.548;2023-06-22T13:00:13;34.80;49.20
19567;DHT22;9930;49.240;8.548;2023-06-22T13:02:40;34.80;49.10
19567;DHT22;9930;49.240;8.548;2023-06-22T13:05:10;34.90;49.00
19567;DHT22;9930;49.240;8.548;2023-06-22T13:07:39;34.90;49.20
19567;DHT22;9930;49.240;8.548;2023-06-22T13:10:13;34.90;49.50
19567;DHT22;9930;49.240;8.548;2023-06-22T13:12:39;35.00;49.50
19567;DHT22;9930;49.240;8.548;2023-06-22T13:15:06;35.10;49.30
19567;DHT22;9930;49.240;8.548;2023-06-22T13:17:32;35.20;49.20
19567;DHT22;9930;49.240;8.548;2023-06-22T13:19:57;35.20;48.80
19567;DHT22;9930;49.240;8.548;2023-06-22T13:22:30;35.20;48.80
19567;DHT22;9930;49.240;8.548;2023-06-22T13:25:05;35.20;48.60
19567;DHT22;9930;49.240;8.548;2023-06-22T13:27:32;35.30;48.80
19567;DHT22;9930;49.240;8.548;2023-06-22T13:29:59;35.30;48.80
19567;DHT22;9930;49.240;8.548;2023-06-22T13:32:25;35.30;48.70
19567;DHT22;9930;49.240;8.548;2023-06-22T13:34:54;35.30;48.60
19567;DHT22;9930;49.240;8.548;2023-06-22T13:37:22;35.30;48.60
19567;DHT22;9930;49.240;8.548;2023-06-22T13:39:50;35.30;48.80
19567;DHT22;9930;49.240;8.548;2023-06-22T13:42:16;35.30;48.90
19567;DHT22;9930;49.240;8.548;2023-06-22T13:44:44;35.30;48.70
19567;DHT22;9930;49.240;8.548;2023-06-22T13:47:13;35.30;49.00
19567;DHT22;9930;49.240;8.548;2023-06-22T13:49:42;35.40;49.10
19567;DHT22;9930;49.240;8.548;2023-06-22T13:52:09;35.40;48.70
19567;DHT22;9930;49.240;8.548;2023-06-22T13:54:38;35.40;48.60
19567;DHT22;9930;49.240;8.548;2023-06-22T13:57:04;35.40;48.40
19567;DHT22;9930;49.240;8.548;2023-06-22T13:59:32;35.40;48.10
19567;DHT22;9930;49.240;8.548;2023-06-22T14:01:58;35.40;47.70
19567;DHT22;9930;49.240;8.548;2023-06-22T14:04:26;35.30;47.50
19567;DHT22;9930;49.240;8.548;2023-06-22T14:06:52;35.30;47.60
19567;DHT22;9930;49.240;8.548;2023-06-22T14:09:21;35.20;47.90
19567;DHT22;9930;49.240;8.548;2023-06-22T14:11:49;35.20;48.50
19567;DHT22;9930;49.240;8.548;2023-06-22T14:14:15;35.20;48.60
19567;DHT22;9930;49.240;8.548;2023-06-22T14:16:44;35.20;48.60
19567;DHT22;9930;49.240;8.548;2023-06-22T14:19:11;35.20;48.30
19567;DHT22;9930;49.240;8.548;2023-06-22T14:21:38;35.10;48.30
19567;DHT22;9930;49.240;8.548;2023-06-22T14:24:04;35.00;48.10
19567;DHT22;9930;49.240;8.548;2023-06-22T14:26:32;35.00;48.10
19567;DHT22;9930;49.240;8.548;2023-06-22T14:29:00;34.90;48.10
19567;DHT22;9930;49.240;8.548;2023-06-22T14:31:29;34.80;48.00
19567;DHT22;9930;49.240;8.548;2023-06-22T14:33:57;34.70;48.10
19567;DHT22;9930;49.240;8.548;2023-06-22T14:36:23;34.50;48.40
19567;DHT22;9930;49.240;8.548;2023-06-22T14:38:48;34.40;48.50
19567;DHT22;9930;49.240;8.548;2023-06-22T14:41:14;34.30;48.50
19567;DHT22;9930;49.240;8.548;2023-06-22T14:43:52;34.20;48.60
19567;DHT22;9930;49.240;8.548;2023-06-22T14:46:18;34.10;49.60
19567;DHT22;9930;49.240;8.548;2023-06-22T14:48:47;33.90;49.00
19567;DHT22;9930;49.240;8.548;2023-06-22T14:51:13;33.80;49.70
19567;DHT22;9930;49.240;8.548;2023-06-22T14:53:44;33.70;49.80
19567;DHT22;9930;49.240;8.548;2023-06-22T14:56:14;33.60;50.20
19567;DHT22;9930;49.240;8.548;2023-06-22T14:58:41;33.50;51.00
19567;DHT22;9930;49.240;8.548;2023-06-22T15:01:16;33.50;51.10
19567;DHT22;9930;49.240;8.548;2023-06-22T15:03:42;33.40;51.40
19567;DHT22;9930;49.240;8.548;2023-06-22T15:06:10;33.30;51.40
19567;DHT22;9930;49.240;8.548;2023-06-22T15:08:41;33.30;51.60
19567;DHT22;9930;49.240;8.548;2023-06-22T15:11:09;33.30;52.10
19567;DHT22;9930;49.240;8.548;2023-06-22T15:13:39;33.30;51.70
19567;DHT22;9930;49.240;8.548;2023-06-22T15:16:08;33.30;51.70
19567;DHT22;9930;49.240;8.548;2023-06-22T15:18:35;33.40;51.80
19567;DHT22;9930;49.240;8.548;2023-06-22T15:21:06;33.50;51.80
19567;DHT22;9930;49.240;8.548;2023-06-22T15:23:33;33.50;51.80
19567;DHT22;9930;49.240;8.548;2023-06-22T15:26:04;33.60;51.60
19567;DHT22;9930;49.240;8.548;2023-06-22T15:28:33;33.60;51.50
19567;DHT22;9930;49.240;8.548;2023-06-22T15:31:00;33.80;51.40
19567;DHT22;9930;49.240;8.548;2023-06-22T15:33:28;33.80;51.20
19567;DHT22;9930;49.240;8.548;2023-06-22T15:35:56;33.80;51.80
19567;DHT22;9930;49.240;8.548;2023-06-22T15:38:22;33.90;51.00
19567;DHT22;9930;49.240;8.548;2023-06-22T15:40:48;33.90;50.90
19567;DHT22;9930;49.240;8.548;2023-06-22T15:43:16;33.90;50.80
19567;DHT22;9930;49.240;8.548;2023-06-22T15:45:44;33.90;50.80
19567;DHT22;9930;49.240;8.548;2023-06-22T15:48:14;34.00;51.60
19567;DHT22;9930;49.240;8.548;2023-06-22T15:50:42;34.00;50.80
19567;DHT22;9930;49.240;8.548;2023-06-22T15:53:08;34.00;50.50
19567;DHT22;9930;49.240;8.548;2023-06-22T15:55:33;34.00;50.70
19567;DHT22;9930;49.240;8.548;2023-06-22T15:58:00;34.00;50.70